createdAt,value
2016-12-08T00:00:14.704Z,96.71
2016-12-08T00:00:36.432Z,96.67
2016-12-08T00:00:58.160Z,96.79
2016-12-08T00:01:19.877Z,96.80
2016-12-08T00:01:41.592Z,96.79
2016-12-08T00:02:03.305Z,96.76
2016-12-08T00:02:25.028Z,96.72
2016-12-08T00:02:46.745Z,96.75
2016-12-08T00:03:08.458Z,96.72
2016-12-08T00:03:30.192Z,96.72
2016-12-08T00:03:51.916Z,96.70
2016-12-08T00:04:13.631Z,96.71
2016-12-08T00:04:35.350Z,96.77
2016-12-08T00:05:23.555Z,96.85
2016-12-08T00:05:45.284Z,96.84
2016-12-08T00:06:07.000Z,96.84
2016-12-08T00:06:28.734Z,96.83
2016-12-08T00:06:50.449Z,96.78
2016-12-08T00:07:12.161Z,96.72
2016-12-08T00:07:33.882Z,96.66
2016-12-08T00:08:00.369Z,96.65
2016-12-08T00:08:22.101Z,96.67
2016-12-08T00:08:43.830Z,96.81
2016-12-08T00:09:05.547Z,96.81
2016-12-08T00:09:53.759Z,96.83
2016-12-08T00:10:15.483Z,96.87
2016-12-08T00:10:37.205Z,96.88
2016-12-08T00:10:58.922Z,96.86
2016-12-08T00:11:20.634Z,96.83
2016-12-08T00:11:42.360Z,96.75
2016-12-08T00:12:04.109Z,96.64
2016-12-08T00:12:25.826Z,96.51
2016-12-08T00:12:47.554Z,96.42
2016-12-08T00:13:09.272Z,96.37
2016-12-08T00:13:35.752Z,96.31
2016-12-08T00:13:57.486Z,96.28
2016-12-08T00:14:19.208Z,96.25
2016-12-08T00:14:40.932Z,96.21
2016-12-08T00:15:02.642Z,96.17
2016-12-08T00:15:24.411Z,96.12
2016-12-08T00:15:50.907Z,96.05
2016-12-08T00:16:12.626Z,96.14
2016-12-08T00:16:34.340Z,96.18
2016-12-08T00:16:56.065Z,96.15
2016-12-08T00:17:18.783Z,96.09
2016-12-08T00:17:45.280Z,95.98
2016-12-08T00:18:07.988Z,95.97
2016-12-08T00:18:29.693Z,96.12
2016-12-08T00:18:51.402Z,96.24
2016-12-08T00:19:13.123Z,96.35
2016-12-08T00:19:39.608Z,96.47
2016-12-08T00:20:32.584Z,96.73
2016-12-08T00:20:55.289Z,96.79
2016-12-08T00:21:17.004Z,96.87
2016-12-08T00:21:43.492Z,97.05
2016-12-08T00:22:05.204Z,97.16
2016-12-08T00:22:27.934Z,97.17
2016-12-08T00:22:49.653Z,97.16
2016-12-08T00:23:11.384Z,97.14
2016-12-08T00:23:33.098Z,97.14
2016-12-08T00:23:54.815Z,97.11
2016-12-08T00:24:16.529Z,97.11
2016-12-08T00:24:43.025Z,97.10
2016-12-08T00:25:10.524Z,97.04
2016-12-08T00:25:32.235Z,97.03
2016-12-08T00:25:53.946Z,97.04
2016-12-08T00:26:15.661Z,97.13
2016-12-08T00:26:38.380Z,97.21
2016-12-08T00:27:00.096Z,97.24
2016-12-08T00:27:21.827Z,97.30
2016-12-08T00:27:43.538Z,97.33
2016-12-08T00:28:05.261Z,97.35
2016-12-08T00:28:26.985Z,97.37
2016-12-08T00:28:48.698Z,97.34
2016-12-08T00:29:15.183Z,97.22
2016-12-08T00:29:37.915Z,97.14
2016-12-08T00:29:59.647Z,97.10
2016-12-08T00:30:21.372Z,97.13
2016-12-08T00:30:43.098Z,97.10
2016-12-08T00:31:04.816Z,97.06
2016-12-08T00:31:29.166Z,97.10
2016-12-08T00:31:50.882Z,97.13
2016-12-08T00:32:12.732Z,97.15
2016-12-08T00:32:34.439Z,97.10
2016-12-08T00:32:56.165Z,97.16
2016-12-08T00:33:17.879Z,97.11
2016-12-08T00:33:39.607Z,97.12
2016-12-08T00:34:01.318Z,97.14
2016-12-08T00:34:23.039Z,97.12
2016-12-08T00:34:44.771Z,97.13
2016-12-08T00:35:06.496Z,97.15
2016-12-08T00:35:28.222Z,97.18
2016-12-08T00:35:49.942Z,97.27
2016-12-08T00:36:11.655Z,97.31
2016-12-08T00:36:33.387Z,97.35
2016-12-08T00:36:55.225Z,97.34
2016-12-08T00:37:16.937Z,97.26
2016-12-08T00:37:43.428Z,97.10
2016-12-08T00:38:05.174Z,97.11
2016-12-08T00:38:26.888Z,97.16
2016-12-08T00:38:48.601Z,97.20
2016-12-08T00:39:10.317Z,97.19
2016-12-08T00:39:32.030Z,97.25
2016-12-08T00:39:53.749Z,97.25
2016-12-08T00:40:15.469Z,97.24
2016-12-08T00:40:37.190Z,97.27
2016-12-08T00:40:58.912Z,97.28
2016-12-08T00:41:20.628Z,97.27
2016-12-08T00:41:42.337Z,97.24
2016-12-08T00:42:04.064Z,97.15
2016-12-08T00:42:25.808Z,97.17
2016-12-08T00:42:55.140Z,97.16
2016-12-08T00:43:16.857Z,97.17
2016-12-08T00:43:38.560Z,97.18
2016-12-08T00:44:00.292Z,97.21
2016-12-08T00:44:24.761Z,97.29
2016-12-08T00:44:46.457Z,97.34
2016-12-08T00:45:08.319Z,97.45
2016-12-08T00:45:29.894Z,97.46
2016-12-08T00:45:51.605Z,97.39
2016-12-08T00:46:13.331Z,97.31
2016-12-08T00:46:36.056Z,97.25
2016-12-08T00:46:58.773Z,97.29
2016-12-08T00:47:20.523Z,97.35
2016-12-08T00:47:42.249Z,97.45
2016-12-08T00:48:03.971Z,97.50
2016-12-08T00:48:25.694Z,97.53
2016-12-08T00:48:47.423Z,97.59
2016-12-08T00:49:09.159Z,97.58
2016-12-08T00:49:31.856Z,97.58
2016-12-08T00:49:58.348Z,97.49
2016-12-08T00:50:20.083Z,97.36
2016-12-08T00:50:41.789Z,97.31
2016-12-08T00:51:03.512Z,97.29
2016-12-08T00:51:25.231Z,97.28
2016-12-08T00:51:46.956Z,97.27
2016-12-08T00:52:08.688Z,97.22
2016-12-08T00:52:30.426Z,97.14
2016-12-08T00:52:52.151Z,97.07
2016-12-08T00:53:18.634Z,96.94
2016-12-08T00:53:45.124Z,96.90
2016-12-08T00:54:11.621Z,96.98
2016-12-08T00:54:33.441Z,97.01
2016-12-08T00:54:55.158Z,97.02
2016-12-08T00:55:16.868Z,97.04
2016-12-08T00:55:38.587Z,97.06
2016-12-08T00:56:00.347Z,97.03
2016-12-08T00:56:22.068Z,96.99
2016-12-08T00:56:48.558Z,96.92
2016-12-08T00:57:10.287Z,97.00
2016-12-08T00:57:31.997Z,97.13
2016-12-08T00:57:53.719Z,97.20
2016-12-08T00:58:15.430Z,97.24
2016-12-08T00:58:37.141Z,97.28
2016-12-08T00:58:58.858Z,97.35
2016-12-08T00:59:20.564Z,97.38
2016-12-08T00:59:42.271Z,97.39
2016-12-08T01:00:03.983Z,97.35
2016-12-08T01:00:25.699Z,97.29
2016-12-08T01:00:47.406Z,97.20
2016-12-08T01:01:09.118Z,97.14
2016-12-08T01:01:30.838Z,97.09
2016-12-08T01:01:52.550Z,97.12
2016-12-08T01:02:14.269Z,97.11
2016-12-08T01:02:40.760Z,97.04
2016-12-08T01:03:02.468Z,96.99
2016-12-08T01:03:24.195Z,96.99
2016-12-08T01:03:45.928Z,97.08
2016-12-08T01:04:07.635Z,97.21
2016-12-08T01:04:29.349Z,97.28
2016-12-08T01:05:17.608Z,97.31
2016-12-08T01:05:39.327Z,97.26
2016-12-08T01:06:01.046Z,97.24
2016-12-08T01:06:22.816Z,97.28
2016-12-08T01:06:49.112Z,97.36
2016-12-08T01:07:10.825Z,97.43
2016-12-08T01:07:32.534Z,97.48
2016-12-08T01:07:54.253Z,97.48
2016-12-08T01:08:17.986Z,97.48
2016-12-08T01:08:39.783Z,97.47
2016-12-08T01:09:01.563Z,97.39
2016-12-08T01:09:24.298Z,97.33
2016-12-08T01:09:50.777Z,97.25
2016-12-08T01:10:12.503Z,97.26
2016-12-08T01:10:34.224Z,97.39
2016-12-08T01:10:55.938Z,97.41
2016-12-08T01:11:17.683Z,97.39
2016-12-08T01:11:39.387Z,97.36
2016-12-08T01:12:02.112Z,97.37
2016-12-08T01:12:23.840Z,97.37
2016-12-08T01:12:45.542Z,97.35
2016-12-08T01:13:07.263Z,97.36
2016-12-08T01:13:28.976Z,97.33
2016-12-08T01:13:58.025Z,97.39
2016-12-08T01:14:19.748Z,97.44
2016-12-08T01:14:41.498Z,97.47
2016-12-08T01:15:29.723Z,97.39
2016-12-08T01:15:51.448Z,97.36
2016-12-08T01:16:13.172Z,97.32
2016-12-08T01:16:39.657Z,97.37
2016-12-08T01:17:01.375Z,97.41
2016-12-08T01:17:23.099Z,97.45
2016-12-08T01:17:45.807Z,97.46
2016-12-08T01:18:07.513Z,97.52
2016-12-08T01:18:30.227Z,97.60
2016-12-08T01:18:57.718Z,97.65
2016-12-08T01:19:19.429Z,97.61
2016-12-08T01:19:41.150Z,97.63
2016-12-08T01:20:02.870Z,97.64
2016-12-08T01:20:29.369Z,97.64
2016-12-08T01:20:51.090Z,97.61
2016-12-08T01:21:12.800Z,97.57
2016-12-08T01:21:34.512Z,97.47
2016-12-08T01:21:59.100Z,97.44
2016-12-08T01:22:20.842Z,97.42
2016-12-08T01:22:42.558Z,97.44
2016-12-08T01:23:04.270Z,97.38
2016-12-08T01:23:25.989Z,97.39
2016-12-08T01:23:47.725Z,97.42
2016-12-08T01:24:09.456Z,97.39
2016-12-08T01:24:31.182Z,97.35
2016-12-08T01:24:52.902Z,97.35
2016-12-08T01:25:14.615Z,97.37
2016-12-08T01:25:36.337Z,97.39
2016-12-08T01:26:02.818Z,97.33
2016-12-08T01:26:29.124Z,97.27
2016-12-08T01:26:50.833Z,97.20
2016-12-08T01:27:15.249Z,97.19
2016-12-08T01:27:41.743Z,97.20
2016-12-08T01:28:03.463Z,97.29
2016-12-08T01:28:25.184Z,97.44
2016-12-08T01:28:47.907Z,97.50
2016-12-08T01:29:09.643Z,97.50
2016-12-08T01:29:31.342Z,97.51
2016-12-08T01:29:53.050Z,97.49
2016-12-08T01:30:14.758Z,97.47
2016-12-08T01:30:36.475Z,97.52
2016-12-08T01:30:58.193Z,97.60
2016-12-08T01:31:19.920Z,97.68
2016-12-08T01:31:41.631Z,97.70
2016-12-08T01:32:03.362Z,97.76
2016-12-08T01:32:29.880Z,97.77
2016-12-08T01:32:51.600Z,97.77
2016-12-08T01:33:13.319Z,97.78
2016-12-08T01:33:39.807Z,97.76
2016-12-08T01:34:01.530Z,97.75
2016-12-08T01:34:23.271Z,97.70
2016-12-08T01:34:44.995Z,97.63
2016-12-08T01:35:06.775Z,97.51
2016-12-08T01:35:29.484Z,97.40
2016-12-08T01:35:51.217Z,97.37
2016-12-08T01:36:12.946Z,97.36
2016-12-08T01:36:34.663Z,97.36
2016-12-08T01:36:56.375Z,97.34
2016-12-08T01:37:18.090Z,97.33
2016-12-08T01:37:49.356Z,97.39
2016-12-08T01:38:11.090Z,97.45
2016-12-08T01:38:32.828Z,97.49
2016-12-08T01:38:54.540Z,97.47
2016-12-08T01:39:22.030Z,97.43
2016-12-08T01:39:43.757Z,97.42
2016-12-08T01:40:05.499Z,97.46
2016-12-08T01:40:27.219Z,97.48
2016-12-08T01:40:48.946Z,97.48
2016-12-08T01:41:10.661Z,97.45
2016-12-08T01:41:32.371Z,97.42
2016-12-08T01:41:54.088Z,97.38
2016-12-08T01:42:15.827Z,97.31
2016-12-08T01:42:37.542Z,97.23
2016-12-08T01:43:04.034Z,97.21
2016-12-08T01:43:25.746Z,97.27
2016-12-08T01:43:52.239Z,97.28
2016-12-08T01:44:13.958Z,97.23
2016-12-08T01:44:35.682Z,97.18
2016-12-08T01:44:57.413Z,97.18
2016-12-08T01:45:20.129Z,97.21
2016-12-08T01:45:44.597Z,97.24
2016-12-08T01:46:06.305Z,97.30
2016-12-08T01:46:28.030Z,97.27
2016-12-08T01:46:49.750Z,97.29
2016-12-08T01:47:37.966Z,97.48
2016-12-08T01:47:59.684Z,97.57
2016-12-08T01:48:21.389Z,97.63
2016-12-08T01:48:43.113Z,97.63
2016-12-08T01:49:04.826Z,97.55
2016-12-08T01:49:26.542Z,97.45
2016-12-08T01:49:48.264Z,97.35
2016-12-08T01:50:09.985Z,97.26
2016-12-08T01:50:31.701Z,97.18
2016-12-08T01:50:53.424Z,97.09
2016-12-08T01:51:15.132Z,97.05
2016-12-08T01:51:36.852Z,97.07
2016-12-08T01:51:59.567Z,97.07
2016-12-08T01:52:21.289Z,97.08
2016-12-08T01:52:43.006Z,97.09
2016-12-08T01:53:04.744Z,97.06
2016-12-08T01:53:53.001Z,97.20
2016-12-08T01:54:14.727Z,97.21
2016-12-08T01:54:36.443Z,97.20
2016-12-08T01:54:58.177Z,97.23
2016-12-08T01:55:19.892Z,97.21
2016-12-08T01:55:41.618Z,97.19
2016-12-08T01:56:03.369Z,97.16
2016-12-08T01:56:25.085Z,97.24
2016-12-08T01:56:51.574Z,97.29
2016-12-08T01:57:13.287Z,97.31
2016-12-08T01:57:35.003Z,97.29
2016-12-08T01:58:23.234Z,97.29
2016-12-08T01:58:44.944Z,97.29
2016-12-08T01:59:06.678Z,97.23
2016-12-08T01:59:28.388Z,97.17
2016-12-08T01:59:50.106Z,97.11
2016-12-08T02:00:11.830Z,97.09
2016-12-08T02:00:33.541Z,97.12
2016-12-08T02:00:55.404Z,97.10
2016-12-08T02:01:17.039Z,97.07
2016-12-08T02:01:38.758Z,97.02
2016-12-08T02:02:00.479Z,97.01
2016-12-08T02:02:22.193Z,97.03
2016-12-08T02:02:43.899Z,97.01
2016-12-08T02:03:10.389Z,96.93
2016-12-08T02:03:32.099Z,96.94
2016-12-08T02:03:53.815Z,97.13
2016-12-08T02:04:15.528Z,97.24
2016-12-08T02:04:37.245Z,97.27
2016-12-08T02:04:58.962Z,97.26
2016-12-08T02:05:25.447Z,97.18
2016-12-08T02:05:51.930Z,97.04
2016-12-08T02:06:18.426Z,96.98
2016-12-08T02:06:40.149Z,96.95
2016-12-08T02:07:01.878Z,96.93
2016-12-08T02:07:23.592Z,96.99
2016-12-08T02:07:45.301Z,96.95
2016-12-08T02:08:07.023Z,96.91
2016-12-08T02:08:28.738Z,96.84
2016-12-08T02:08:50.449Z,96.76
2016-12-08T02:09:43.418Z,96.92
2016-12-08T02:10:05.139Z,97.00
2016-12-08T02:10:26.850Z,97.14
2016-12-08T02:10:48.575Z,97.23
2016-12-08T02:11:10.322Z,97.27
2016-12-08T02:11:36.817Z,97.33
2016-12-08T02:11:58.534Z,97.26
2016-12-08T02:12:20.254Z,97.20
2016-12-08T02:12:42.003Z,97.18
2016-12-08T02:13:03.723Z,97.20
2016-12-08T02:13:25.436Z,97.18
2016-12-08T02:13:48.152Z,97.15
2016-12-08T02:14:09.864Z,97.06
2016-12-08T02:14:31.579Z,96.99
2016-12-08T02:14:53.299Z,96.95
2016-12-08T02:15:16.009Z,96.95
2016-12-08T02:15:37.740Z,96.95
2016-12-08T02:15:59.459Z,96.96
2016-12-08T02:16:22.171Z,96.97
2016-12-08T02:16:48.670Z,96.95
2016-12-08T02:17:10.386Z,96.92
2016-12-08T02:17:32.096Z,96.93
2016-12-08T02:17:53.809Z,96.92
2016-12-08T02:18:15.544Z,96.98
2016-12-08T02:18:37.266Z,97.02
2016-12-08T02:18:58.981Z,96.99
2016-12-08T02:19:20.701Z,96.92
2016-12-08T02:19:42.423Z,96.85
2016-12-08T02:20:08.927Z,96.91
2016-12-08T02:20:31.653Z,97.06
2016-12-08T02:20:53.377Z,97.25
2016-12-08T02:21:15.092Z,97.26
2016-12-08T02:21:36.796Z,97.20
2016-12-08T02:21:58.523Z,97.18
2016-12-08T02:22:20.241Z,97.16
2016-12-08T02:22:41.950Z,97.14
2016-12-08T02:23:03.675Z,97.25
2016-12-08T02:23:25.393Z,97.31
2016-12-08T02:23:47.103Z,97.28
2016-12-08T02:24:08.814Z,97.25
2016-12-08T02:24:30.531Z,97.13
2016-12-08T02:24:52.243Z,97.04
2016-12-08T02:25:13.966Z,96.99
2016-12-08T02:25:35.682Z,96.98
2016-12-08T02:25:57.411Z,97.03
2016-12-08T02:26:19.127Z,97.03
2016-12-08T02:26:40.845Z,97.02
2016-12-08T02:27:02.572Z,96.91
2016-12-08T02:27:24.282Z,96.81
2016-12-08T02:27:46.016Z,96.77
2016-12-08T02:28:07.729Z,96.82
2016-12-08T02:28:29.442Z,96.88
2016-12-08T02:28:51.159Z,96.92
2016-12-08T02:29:12.878Z,96.92
2016-12-08T02:29:34.594Z,96.80
2016-12-08T02:29:56.312Z,96.71
2016-12-08T02:30:18.036Z,96.65
2016-12-08T02:30:39.780Z,96.67
2016-12-08T02:31:01.490Z,96.70
2016-12-08T02:31:23.203Z,96.70
2016-12-08T02:31:44.920Z,96.63
2016-12-08T02:32:06.656Z,96.56
2016-12-08T02:32:28.385Z,96.48
2016-12-08T02:32:50.088Z,96.53
2016-12-08T02:33:11.809Z,96.55
2016-12-08T02:33:33.532Z,96.56
2016-12-08T02:33:55.265Z,96.58
2016-12-08T02:34:16.984Z,96.67
2016-12-08T02:34:38.695Z,96.71
2016-12-08T02:35:00.420Z,96.71
2016-12-08T02:35:23.125Z,96.74
2016-12-08T02:35:44.844Z,96.75
2016-12-08T02:36:06.553Z,96.82
2016-12-08T02:36:28.267Z,96.81
2016-12-08T02:36:49.976Z,96.82
2016-12-08T02:37:11.693Z,96.86
2016-12-08T02:37:33.433Z,96.80
2016-12-08T02:37:55.146Z,96.81
2016-12-08T02:38:16.870Z,96.86
2016-12-08T02:38:38.588Z,96.92
2016-12-08T02:39:00.312Z,96.93
2016-12-08T02:39:22.053Z,96.93
2016-12-08T02:39:43.768Z,97.02
2016-12-08T02:40:05.497Z,97.10
2016-12-08T02:40:27.205Z,97.15
2016-12-08T02:40:48.919Z,97.15
2016-12-08T02:41:10.642Z,97.13
2016-12-08T02:41:32.359Z,97.08
2016-12-08T02:41:58.852Z,97.13
2016-12-08T02:42:20.567Z,97.15
2016-12-08T02:42:42.288Z,97.12
2016-12-08T02:43:04.005Z,97.10
2016-12-08T02:43:25.726Z,97.06
2016-12-08T02:43:47.450Z,97.08
2016-12-08T02:44:09.167Z,97.09
2016-12-08T02:44:30.880Z,97.08
2016-12-08T02:44:52.590Z,97.11
2016-12-08T02:45:14.298Z,97.17
2016-12-08T02:45:36.011Z,97.23
2016-12-08T02:45:58.849Z,97.21
2016-12-08T02:46:20.579Z,97.21
2016-12-08T02:46:42.290Z,97.18
2016-12-08T02:47:03.998Z,97.12
2016-12-08T02:47:25.718Z,97.06
2016-12-08T02:47:47.441Z,97.10
2016-12-08T02:48:13.921Z,97.14
2016-12-08T02:48:35.640Z,97.07
2016-12-08T02:48:57.358Z,96.99
2016-12-08T02:49:19.072Z,97.01
2016-12-08T02:49:40.825Z,97.02
2016-12-08T02:50:02.546Z,97.06
2016-12-08T02:50:29.038Z,97.10
2016-12-08T02:50:53.364Z,97.10
2016-12-08T02:51:16.080Z,97.09
2016-12-08T02:51:37.791Z,97.11
2016-12-08T02:51:59.502Z,97.18
2016-12-08T02:52:21.231Z,97.17
2016-12-08T02:52:42.956Z,97.08
2016-12-08T02:53:09.440Z,97.03
2016-12-08T02:53:31.167Z,97.07
2016-12-08T02:53:52.878Z,97.10
2016-12-08T02:54:14.596Z,97.05
2016-12-08T02:54:36.325Z,97.01
2016-12-08T02:54:58.038Z,96.99
2016-12-08T02:55:19.757Z,96.94
2016-12-08T02:55:41.476Z,96.94
2016-12-08T02:56:03.178Z,96.94
2016-12-08T02:56:24.890Z,96.92
2016-12-08T02:56:46.621Z,96.88
2016-12-08T02:57:08.339Z,96.88
2016-12-08T02:57:30.058Z,96.90
2016-12-08T02:57:59.402Z,96.97
2016-12-08T02:58:25.892Z,97.00
2016-12-08T02:58:47.605Z,97.02
2016-12-08T02:59:09.329Z,96.99
2016-12-08T02:59:31.046Z,96.96
2016-12-08T02:59:52.774Z,97.11
2016-12-08T03:00:19.264Z,97.27
2016-12-08T03:00:40.983Z,97.43
2016-12-08T03:01:02.700Z,97.47
2016-12-08T03:01:24.415Z,97.43
2016-12-08T03:01:50.910Z,97.32
2016-12-08T03:02:12.628Z,97.34
2016-12-08T03:02:34.348Z,97.39
2016-12-08T03:03:00.842Z,97.41
2016-12-08T03:03:22.566Z,97.37
2016-12-08T03:03:44.281Z,97.26
2016-12-08T03:04:05.997Z,97.14
2016-12-08T03:04:27.838Z,97.05
2016-12-08T03:04:49.558Z,96.98
2016-12-08T03:05:11.276Z,96.90
2016-12-08T03:05:32.989Z,96.89
2016-12-08T03:05:54.707Z,96.85
2016-12-08T03:06:16.419Z,96.80
2016-12-08T03:06:38.146Z,96.74
2016-12-08T03:07:00.884Z,96.71
2016-12-08T03:07:22.607Z,96.69
2016-12-08T03:07:47.868Z,96.71
2016-12-08T03:08:09.606Z,96.73
2016-12-08T03:08:31.353Z,96.79
2016-12-08T03:08:53.067Z,96.84
2016-12-08T03:09:14.786Z,96.79
2016-12-08T03:09:36.501Z,96.75
2016-12-08T03:09:58.228Z,96.77
2016-12-08T03:10:20.110Z,96.77
2016-12-08T03:10:41.820Z,96.85
2016-12-08T03:11:03.539Z,96.83
2016-12-08T03:11:25.257Z,96.83
2016-12-08T03:11:46.962Z,96.83
2016-12-08T03:12:08.697Z,96.86
2016-12-08T03:12:31.414Z,96.87
2016-12-08T03:12:57.982Z,96.91
2016-12-08T03:13:22.298Z,96.92
2016-12-08T03:13:45.003Z,96.89
2016-12-08T03:14:06.731Z,96.87
2016-12-08T03:14:28.446Z,96.87
2016-12-08T03:14:50.152Z,96.87
2016-12-08T03:15:11.874Z,96.87
2016-12-08T03:15:33.601Z,96.87
2016-12-08T03:15:55.333Z,96.77
2016-12-08T03:16:17.052Z,96.76
2016-12-08T03:16:38.776Z,96.75
2016-12-08T03:17:00.494Z,96.74
2016-12-08T03:17:22.209Z,96.71
2016-12-08T03:17:43.945Z,96.66
2016-12-08T03:18:05.659Z,96.64
2016-12-08T03:18:27.399Z,96.59
2016-12-08T03:18:49.125Z,96.60
2016-12-08T03:19:10.832Z,96.59
2016-12-08T03:19:32.554Z,96.65
2016-12-08T03:19:54.269Z,96.69
2016-12-08T03:20:15.983Z,96.79
2016-12-08T03:20:37.706Z,96.81
2016-12-08T03:20:59.413Z,96.81
2016-12-08T03:21:21.124Z,96.86
2016-12-08T03:21:42.839Z,96.86
2016-12-08T03:22:04.554Z,96.84
2016-12-08T03:22:26.307Z,96.81
2016-12-08T03:22:48.014Z,96.76
2016-12-08T03:23:09.730Z,96.78
2016-12-08T03:23:33.977Z,96.82
2016-12-08T03:23:56.707Z,96.83
2016-12-08T03:24:19.413Z,96.88
2016-12-08T03:24:42.131Z,96.91
2016-12-08T03:25:03.852Z,96.92
2016-12-08T03:25:25.570Z,96.86
2016-12-08T03:25:47.292Z,96.92
2016-12-08T03:26:09.007Z,96.99
2016-12-08T03:26:30.720Z,97.08
2016-12-08T03:26:52.432Z,97.08
2016-12-08T03:27:14.145Z,97.22
2016-12-08T03:27:35.857Z,97.25
2016-12-08T03:28:02.344Z,97.28
2016-12-08T03:28:24.066Z,97.19
2016-12-08T03:28:45.771Z,97.10
2016-12-08T03:29:07.484Z,97.05
2016-12-08T03:29:29.203Z,96.96
2016-12-08T03:29:51.912Z,96.91
2016-12-08T03:30:13.639Z,96.87
2016-12-08T03:30:35.358Z,96.82
2016-12-08T03:30:57.073Z,96.82
2016-12-08T03:31:18.833Z,96.86
2016-12-08T03:31:40.567Z,96.92
2016-12-08T03:32:02.285Z,96.87
2016-12-08T03:32:23.999Z,96.77
2016-12-08T03:32:45.714Z,96.67
2016-12-08T03:33:12.210Z,96.61
2016-12-08T03:33:33.933Z,96.54
2016-12-08T03:33:55.655Z,96.47
2016-12-08T03:34:17.369Z,96.37
2016-12-08T03:34:39.078Z,96.34
2016-12-08T03:35:00.801Z,96.31
2016-12-08T03:35:22.524Z,96.33
2016-12-08T03:35:44.236Z,96.51
2016-12-08T03:36:05.953Z,96.53
2016-12-08T03:36:54.159Z,96.48
2016-12-08T03:37:15.875Z,96.51
2016-12-08T03:37:37.586Z,96.57
2016-12-08T03:38:01.835Z,96.61
2016-12-08T03:38:23.546Z,96.59
2016-12-08T03:38:45.264Z,96.55
2016-12-08T03:39:07.019Z,96.49
2016-12-08T03:39:28.732Z,96.46
2016-12-08T03:39:50.452Z,96.47
2016-12-08T03:40:12.159Z,96.49
2016-12-08T03:40:33.870Z,96.44
2016-12-08T03:41:00.359Z,96.42
2016-12-08T03:41:22.074Z,96.36
2016-12-08T03:41:43.789Z,96.27
2016-12-08T03:42:05.500Z,96.15
2016-12-08T03:42:27.304Z,96.01
2016-12-08T03:42:49.008Z,95.98
2016-12-08T03:43:10.720Z,96.02
2016-12-08T03:43:32.434Z,96.01
2016-12-08T03:43:54.145Z,96.02
2016-12-08T03:44:15.858Z,96.12
2016-12-08T03:44:37.575Z,96.24
2016-12-08T03:44:59.328Z,96.31
2016-12-08T03:45:21.046Z,96.36
2016-12-08T03:45:42.770Z,96.29
2016-12-08T03:46:04.484Z,96.22
2016-12-08T03:46:26.196Z,96.18
2016-12-08T03:46:47.915Z,96.17
2016-12-08T03:47:09.632Z,96.15
2016-12-08T03:47:31.360Z,96.16
2016-12-08T03:47:53.075Z,96.26
2016-12-08T03:48:14.794Z,96.32
2016-12-08T03:48:36.502Z,96.30
2016-12-08T03:48:58.213Z,96.21
2016-12-08T03:49:19.932Z,96.13
2016-12-08T03:49:41.656Z,96.19
2016-12-08T03:50:03.366Z,96.16
2016-12-08T03:50:25.085Z,96.12
2016-12-08T03:50:46.796Z,96.16
2016-12-08T03:51:13.297Z,96.20
2016-12-08T03:51:35.013Z,96.13
2016-12-08T03:51:56.751Z,96.08
2016-12-08T03:52:18.478Z,96.16
2016-12-08T03:52:40.197Z,96.18
2016-12-08T03:53:01.935Z,96.27
2016-12-08T03:53:50.135Z,96.40
2016-12-08T03:54:11.851Z,96.46
2016-12-08T03:54:33.563Z,96.46
2016-12-08T03:54:55.284Z,96.46
2016-12-08T03:55:16.999Z,96.40
2016-12-08T03:55:38.719Z,96.28
2016-12-08T03:56:00.436Z,96.18
2016-12-08T03:56:22.154Z,96.05
2016-12-08T03:56:43.868Z,96.03
2016-12-08T03:57:05.581Z,96.05
2016-12-08T03:57:28.299Z,96.06
2016-12-08T03:57:50.015Z,96.04
2016-12-08T03:58:11.728Z,96.08
2016-12-08T03:58:33.440Z,96.14
2016-12-08T03:58:55.282Z,96.24
2016-12-08T03:59:17.009Z,96.31
2016-12-08T03:59:38.727Z,96.32
2016-12-08T04:00:00.450Z,96.29
2016-12-08T04:00:22.158Z,96.28
2016-12-08T04:00:43.875Z,96.24
2016-12-08T04:01:05.601Z,96.13
2016-12-08T04:01:27.323Z,96.14
2016-12-08T04:01:49.041Z,96.15
2016-12-08T04:02:10.760Z,96.19
2016-12-08T04:02:32.470Z,96.20
2016-12-08T04:02:54.190Z,96.16
2016-12-08T04:03:15.898Z,96.03
2016-12-08T04:03:37.614Z,95.95
2016-12-08T04:03:59.333Z,95.94
2016-12-08T04:04:21.051Z,95.90
2016-12-08T04:04:42.789Z,95.93
2016-12-08T04:05:04.509Z,96.03
2016-12-08T04:05:26.228Z,96.11
2016-12-08T04:05:47.982Z,96.12
2016-12-08T04:06:09.704Z,96.07
2016-12-08T04:06:36.191Z,96.06
2016-12-08T04:06:57.948Z,96.09
2016-12-08T04:07:20.664Z,96.12
2016-12-08T04:07:42.377Z,96.10
2016-12-08T04:08:04.081Z,96.12
2016-12-08T04:08:25.789Z,96.19
2016-12-08T04:08:47.510Z,96.27
2016-12-08T04:09:09.384Z,96.42
2016-12-08T04:09:31.090Z,96.56
2016-12-08T04:09:52.806Z,96.60
2016-12-08T04:10:14.520Z,96.54
2016-12-08T04:10:36.232Z,96.42
2016-12-08T04:10:57.946Z,96.34
2016-12-08T04:11:19.670Z,96.30
2016-12-08T04:11:41.376Z,96.31
2016-12-08T04:12:04.089Z,96.25
2016-12-08T04:12:25.813Z,96.32
2016-12-08T04:12:47.523Z,96.36
2016-12-08T04:13:09.243Z,96.35
2016-12-08T04:13:30.995Z,96.30
2016-12-08T04:13:57.570Z,96.22
2016-12-08T04:14:24.053Z,96.21
2016-12-08T04:14:45.770Z,96.26
2016-12-08T04:15:12.264Z,96.30
2016-12-08T04:15:33.981Z,96.36
2016-12-08T04:15:55.701Z,96.45
2016-12-08T04:16:17.421Z,96.52
2016-12-08T04:16:39.133Z,96.54
2016-12-08T04:17:00.846Z,96.48
2016-12-08T04:17:22.549Z,96.40
2016-12-08T04:17:44.274Z,96.31
2016-12-08T04:18:05.992Z,96.32
2016-12-08T04:18:27.695Z,96.41
2016-12-08T04:18:49.412Z,96.46
2016-12-08T04:19:11.154Z,96.46
2016-12-08T04:19:32.865Z,96.44
2016-12-08T04:19:59.360Z,96.48
2016-12-08T04:20:21.089Z,96.55
2016-12-08T04:20:42.809Z,96.61
2016-12-08T04:21:05.518Z,96.65
2016-12-08T04:21:27.232Z,96.68
2016-12-08T04:21:48.950Z,96.69
2016-12-08T04:22:37.163Z,96.74
2016-12-08T04:22:58.885Z,96.74
2016-12-08T04:23:21.595Z,96.68
2016-12-08T04:23:43.323Z,96.60
2016-12-08T04:24:05.074Z,96.48
2016-12-08T04:24:26.819Z,96.42
2016-12-08T04:24:48.536Z,96.37
2016-12-08T04:25:10.254Z,96.36
2016-12-08T04:25:31.981Z,96.37
2016-12-08T04:25:53.698Z,96.38
2016-12-08T04:26:15.477Z,96.43
2016-12-08T04:26:37.193Z,96.45
2016-12-08T04:27:25.488Z,96.51
2016-12-08T04:27:47.201Z,96.56
2016-12-08T04:28:08.931Z,96.58
2016-12-08T04:28:30.649Z,96.58
2016-12-08T04:28:52.367Z,96.67
2016-12-08T04:29:16.760Z,96.71
2016-12-08T04:29:38.478Z,96.66
2016-12-08T04:30:00.185Z,96.67
2016-12-08T04:30:21.917Z,96.69
2016-12-08T04:30:43.634Z,96.69
2016-12-08T04:31:05.346Z,96.67
2016-12-08T04:31:27.070Z,96.77
2016-12-08T04:31:48.779Z,96.79
2016-12-08T04:32:10.503Z,96.74
2016-12-08T04:32:32.213Z,96.66
2016-12-08T04:32:53.926Z,96.67
2016-12-08T04:33:15.648Z,96.60
2016-12-08T04:33:37.371Z,96.55
2016-12-08T04:34:03.856Z,96.54
2016-12-08T04:34:25.578Z,96.62
2016-12-08T04:34:47.289Z,96.64
2016-12-08T04:35:09.014Z,96.63
2016-12-08T04:35:30.742Z,96.62
2016-12-08T04:35:52.471Z,96.65
2016-12-08T04:36:14.184Z,96.66
2016-12-08T04:36:35.896Z,96.64
2016-12-08T04:36:57.614Z,96.67
2016-12-08T04:37:19.331Z,96.76
2016-12-08T04:37:41.044Z,96.79
2016-12-08T04:38:02.787Z,96.85
2016-12-08T04:38:24.509Z,96.80
2016-12-08T04:38:46.227Z,96.72
2016-12-08T04:39:07.939Z,96.63
2016-12-08T04:39:34.434Z,96.58
2016-12-08T04:39:56.155Z,96.56
2016-12-08T04:40:18.885Z,96.58
2016-12-08T04:40:40.595Z,96.60
2016-12-08T04:41:02.316Z,96.54
2016-12-08T04:41:24.034Z,96.42
2016-12-08T04:41:45.762Z,96.31
2016-12-08T04:42:07.467Z,96.30
2016-12-08T04:42:29.177Z,96.40
2016-12-08T04:42:50.892Z,96.42
2016-12-08T04:43:12.600Z,96.40
2016-12-08T04:43:34.313Z,96.37
2016-12-08T04:43:56.030Z,96.35
2016-12-08T04:44:17.744Z,96.29
2016-12-08T04:44:39.456Z,96.28
2016-12-08T04:45:01.175Z,96.22
2016-12-08T04:45:27.661Z,96.18
2016-12-08T04:45:49.375Z,96.23
2016-12-08T04:46:11.103Z,96.24
2016-12-08T04:46:32.798Z,96.21
2016-12-08T04:46:54.532Z,96.26
2016-12-08T04:47:16.243Z,96.30
2016-12-08T04:47:37.959Z,96.33
2016-12-08T04:47:59.716Z,96.33
2016-12-08T04:48:21.448Z,96.35
2016-12-08T04:48:43.354Z,96.41
2016-12-08T04:49:05.077Z,96.51
2016-12-08T04:49:26.793Z,96.50
2016-12-08T04:49:48.504Z,96.49
2016-12-08T04:50:10.233Z,96.50
2016-12-08T04:50:36.712Z,96.46
2016-12-08T04:50:58.423Z,96.44
2016-12-08T04:51:20.132Z,96.42
2016-12-08T04:51:41.861Z,96.37
2016-12-08T04:52:03.575Z,96.35